Charleston, VT

6:26 AM EST on November 28, 2014 (GMT -0500)
Newport's Current Weather | Change Station
CLOSE
Current Station
Personal Weather Station
Location: Newport, VT
Elevation: 785 ft
Nearby Weather Stations

Elev 785 ft 44.95 °N, 72.19 °W | Updated 2 seconds ago

Snow
Snow
21.5 °F
Feels Like 22 °F
N
0.0
Wind Variable Wind from SSE
Gusts 0.0 mph

Today
High -- | Low -- °F
--% Chance of Precip.
Yesterday
High -- | Low -- °F
Precip. -- in
7:01 AM 4:09 PM
Waxing Crescent, 39% visible
Pressure 30.02 in
Visibility 1.8 miles
Clouds Overcast 1300 ft
Windchill 22 °F
Dew Point 20 °F
Humidity 92%
Rainfall 0.00 in
Snow Depth Not available.
UV 0 out of 12
Pollen .10 out of 12
Air Quality Not available.
Flu Activity Not available.
METAR KEFK 281115Z AUTO 00000KT 1 3/4SM -SN OVC013 M06/M07 A3002 RMK AO2 T10651073

More Conditions Fewer Conditions

Pressure 30.02 in
Visibility 1.8 miles
Clouds Overcast 1300 ft
Windchill 22 °F
Dew Point 20 °F
Humidity 92%
Rainfall 0.00 in
Snow Depth Not available.
UV 0 out of 12
Pollen .10 out of 12
Air Quality Not available.
Flu Activity Not available.
METAR KEFK 281115Z AUTO 00000KT 1 3/4SM -SN OVC013 M06/M07 A3002 RMK AO2 T10651073

More Conditions Fewer Conditions

10-Day Weather Forecast

Almanac

Astronomy

Nov. 28, 2014 Rise Set
Actual Time
Civil Twilight
Nautical Twilight
Astronomical Twilight
Moon
Length of Visible Light
Length of Day
Tomorrow will be .
, % of the Moon is Illuminated

Today's Extremes

State Highs State Lows

Community

WunderPhotos

Upload Photos

1,774,192 photos uploaded!

WunderBlogs® & News

Nearby

Air Quality

  Air Quality AQ Index Pollutant
Not available.

Snow Depth

Station Depth Elevation

Earthquake Activity

City Distance Mag. Time & Date
Minimum magnitude displayed is 2.5.

Coastal Water Temperatures

Place Temperature

Nearby Weather Stations